sensor_id;sensor_type;location;lat;lon;timestamp;pressure;altitude;pressure_sealevel;temperature;humidity
62103;BME280;48077;48.104;11.702;2023-04-02T00:01:41;94689.72;;;6.14;85.25
62103;BME280;48077;48.104;11.702;2023-04-02T00:04:12;94709.56;;;6.23;85.46
62103;BME280;48077;48.104;11.702;2023-04-02T00:06:38;94707.56;;;6.18;85.40
62103;BME280;48077;48.104;11.702;2023-04-02T00:11:40;94716.56;;;6.17;85.99
62103;BME280;48077;48.104;11.702;2023-04-02T00:14:14;94714.28;;;6.21;85.26
62103;BME280;48077;48.104;11.702;2023-04-02T00:16:38;94695.19;;;6.00;85.93
62103;BME280;48077;48.104;11.702;2023-04-02T00:19:05;94709.94;;;6.08;86.24
62103;BME280;48077;48.104;11.702;2023-04-02T00:21:34;94708.88;;;5.97;86.24
62103;BME280;48077;48.104;11.702;2023-04-02T00:24:01;94717.75;;;6.03;87.05
62103;BME280;48077;48.104;11.702;2023-04-02T00:26:34;94718.19;;;6.00;87.31
62103;BME280;48077;48.104;11.702;2023-04-02T00:28:59;94696.34;;;5.86;87.45
62103;BME280;48077;48.104;11.702;2023-04-02T00:31:23;94718.88;;;5.95;87.35
62103;BME280;48077;48.104;11.702;2023-04-02T00:33:47;94720.91;;;5.93;87.89
62103;BME280;48077;48.104;11.702;2023-04-02T00:36:11;94713.72;;;5.82;87.87
62103;BME280;48077;48.104;11.702;2023-04-02T00:38:35;94712.75;;;5.76;88.35
62103;BME280;48077;48.104;11.702;2023-04-02T00:41:01;94707.75;;;5.68;87.99
62103;BME280;48077;48.104;11.702;2023-04-02T00:43:28;94727.53;;;5.84;88.27
62103;BME280;48077;48.104;11.702;2023-04-02T00:45:55;94714.88;;;5.67;88.22
62103;BME280;48077;48.104;11.702;2023-04-02T00:50:55;94658.91;;;5.34;87.93
62103;BME280;48077;48.104;11.702;2023-04-02T00:53:23;94704.31;;;5.67;88.31
62103;BME280;48077;48.104;11.702;2023-04-02T00:55:48;94726.44;;;5.73;88.44
62103;BME280;48077;48.104;11.702;2023-04-02T00:58:31;94728.03;;;5.74;88.26
62103;BME280;48077;48.104;11.702;2023-04-02T01:00:55;94718.56;;;5.66;88.02
62103;BME280;48077;48.104;11.702;2023-04-02T01:05:51;94729.38;;;5.65;87.80
62103;BME280;48077;48.104;11.702;2023-04-02T01:08:20;94740.91;;;5.71;87.71
62103;BME280;48077;48.104;11.702;2023-04-02T01:19:14;94734.66;;;5.65;88.49
62103;BME280;48077;48.104;11.702;2023-04-02T01:24:31;94740.31;;;5.68;88.60
62103;BME280;48077;48.104;11.702;2023-04-02T01:27:01;94730.38;;;5.64;88.40
62103;BME280;48077;48.104;11.702;2023-04-02T01:29:37;94733.84;;;5.64;88.47
62103;BME280;48077;48.104;11.702;2023-04-02T01:32:11;94736.84;;;5.68;88.34
62103;BME280;48077;48.104;11.702;2023-04-02T01:34:36;94745.56;;;5.75;88.14
62103;BME280;48077;48.104;11.702;2023-04-02T01:45:11;94747.03;;;5.90;86.69
62103;BME280;48077;48.104;11.702;2023-04-02T01:47:36;94738.91;;;5.84;86.92
62103;BME280;48077;48.104;11.702;2023-04-02T01:50:48;94746.56;;;5.93;86.65
62103;BME280;48077;48.104;11.702;2023-04-02T01:52:49;94721.50;;;5.77;86.93
62103;BME280;48077;48.104;11.702;2023-04-02T01:55:17;94756.09;;;5.94;87.40
62103;BME280;48077;48.104;11.702;2023-04-02T01:57:43;94757.38;;;5.91;87.38
62103;BME280;48077;48.104;11.702;2023-04-02T02:00:14;94737.16;;;5.78;87.68
62103;BME280;48077;48.104;11.702;2023-04-02T02:02:41;94731.78;;;5.66;87.66
62103;BME280;48077;48.104;11.702;2023-04-02T02:05:13;94751.56;;;5.82;87.98
62103;BME280;48077;48.104;11.702;2023-04-02T02:07:37;94765.59;;;5.83;87.84
62103;BME280;48077;48.104;11.702;2023-04-02T02:10:03;94764.50;;;5.91;87.30
62103;BME280;48077;48.104;11.702;2023-04-02T02:12:27;94771.63;;;5.90;87.51
62103;BME280;48077;48.104;11.702;2023-04-02T02:14:51;94745.75;;;5.74;87.57
62103;BME280;48077;48.104;11.702;2023-04-02T02:17:17;94755.84;;;5.83;87.37
62103;BME280;48077;48.104;11.702;2023-04-02T02:19:46;94771.06;;;5.88;87.46
62103;BME280;48077;48.104;11.702;2023-04-02T02:22:30;94782.56;;;5.94;87.48
62103;BME280;48077;48.104;11.702;2023-04-02T02:24:56;94779.34;;;5.92;88.03
62103;BME280;48077;48.104;11.702;2023-04-02T02:29:45;94773.19;;;5.79;87.83
62103;BME280;48077;48.104;11.702;2023-04-02T02:32:11;94764.22;;;5.80;88.06
62103;BME280;48077;48.104;11.702;2023-04-02T02:34:39;94768.91;;;5.78;88.15
62103;BME280;48077;48.104;11.702;2023-04-02T02:37:23;94780.38;;;5.91;88.01
62103;BME280;48077;48.104;11.702;2023-04-02T02:39:52;94783.53;;;5.81;88.17
62103;BME280;48077;48.104;11.702;2023-04-02T02:42:37;94785.88;;;5.89;87.95
62103;BME280;48077;48.104;11.702;2023-04-02T02:45:04;94792.44;;;5.86;87.94
62103;BME280;48077;48.104;11.702;2023-04-02T02:47:32;94794.13;;;5.81;88.01
62103;BME280;48077;48.104;11.702;2023-04-02T02:50:00;94788.63;;;5.82;87.58
62103;BME280;48077;48.104;11.702;2023-04-02T02:52:29;94795.28;;;5.85;87.83
62103;BME280;48077;48.104;11.702;2023-04-02T02:54:58;94787.44;;;5.78;88.08
62103;BME280;48077;48.104;11.702;2023-04-02T02:57:26;94795.97;;;5.80;88.07
62103;BME280;48077;48.104;11.702;2023-04-02T02:59:54;94796.75;;;5.81;88.03
62103;BME280;48077;48.104;11.702;2023-04-02T03:02:19;94779.56;;;5.72;87.49
62103;BME280;48077;48.104;11.702;2023-04-02T03:04:46;94792.94;;;5.77;87.79
62103;BME280;48077;48.104;11.702;2023-04-02T03:07:10;94795.16;;;5.80;87.93
62103;BME280;48077;48.104;11.702;2023-04-02T03:09:53;94808.31;;;5.86;87.65
62103;BME280;48077;48.104;11.702;2023-04-02T03:15:24;94804.13;;;5.79;88.17
62103;BME280;48077;48.104;11.702;2023-04-02T03:17:59;94789.34;;;5.71;88.17
62103;BME280;48077;48.104;11.702;2023-04-02T03:20:47;94813.81;;;5.85;88.03
62103;BME280;48077;48.104;11.702;2023-04-02T03:23:16;94808.78;;;5.83;87.77
62103;BME280;48077;48.104;11.702;2023-04-02T03:25:51;94812.44;;;5.82;87.62
62103;BME280;48077;48.104;11.702;2023-04-02T03:28:22;94808.59;;;5.78;87.85
62103;BME280;48077;48.104;11.702;2023-04-02T03:31:00;94812.28;;;5.77;87.83
62103;BME280;48077;48.104;11.702;2023-04-02T03:33:33;94823.47;;;5.79;88.17
62103;BME280;48077;48.104;11.702;2023-04-02T03:36:03;94815.63;;;5.66;88.40
62103;BME280;48077;48.104;11.702;2023-04-02T03:38:31;94821.31;;;5.70;88.41
62103;BME280;48077;48.104;11.702;2023-04-02T03:41:01;94832.28;;;5.73;88.52
62103;BME280;48077;48.104;11.702;2023-04-02T03:43:31;94825.81;;;5.69;88.43
62103;BME280;48077;48.104;11.702;2023-04-02T03:46:07;94837.56;;;5.73;88.15
62103;BME280;48077;48.104;11.702;2023-04-02T03:48:39;94838.78;;;5.71;88.41
62103;BME280;48077;48.104;11.702;2023-04-02T03:51:20;94827.63;;;5.68;88.77
62103;BME280;48077;48.104;11.702;2023-04-02T03:53:46;94832.91;;;5.68;88.39
62103;BME280;48077;48.104;11.702;2023-04-02T03:56:23;94835.56;;;5.68;88.18
62103;BME280;48077;48.104;11.702;2023-04-02T03:58:55;94844.91;;;5.71;88.60
62103;BME280;48077;48.104;11.702;2023-04-02T04:01:28;94845.94;;;5.70;88.14
62103;BME280;48077;48.104;11.702;2023-04-02T04:03:56;94854.47;;;5.72;88.17
62103;BME280;48077;48.104;11.702;2023-04-02T04:06:26;94832.97;;;5.62;88.52
62103;BME280;48077;48.104;11.702;2023-04-02T04:09:09;94864.66;;;5.68;88.63
62103;BME280;48077;48.104;11.702;2023-04-02T04:11:36;94865.69;;;5.67;88.50
62103;BME280;48077;48.104;11.702;2023-04-02T04:14:08;94865.09;;;5.65;89.09
62103;BME280;48077;48.104;11.702;2023-04-02T04:17:10;94865.09;;;5.65;89.11
62103;BME280;48077;48.104;11.702;2023-04-02T04:22:15;94854.00;;;5.57;88.73
62103;BME280;48077;48.104;11.702;2023-04-02T04:24:42;94872.44;;;5.63;88.79
62103;BME280;48077;48.104;11.702;2023-04-02T04:27:18;94868.81;;;5.58;88.14
62103;BME280;48077;48.104;11.702;2023-04-02T04:29:57;94866.78;;;5.60;87.80
62103;BME280;48077;48.104;11.702;2023-04-02T04:32:31;94871.84;;;5.61;87.94
62103;BME280;48077;48.104;11.702;2023-04-02T04:35:05;94872.88;;;5.60;87.77
62103;BME280;48077;48.104;11.702;2023-04-02T04:37:36;94882.66;;;5.60;88.13
62103;BME280;48077;48.104;11.702;2023-04-02T04:40:21;94882.28;;;5.56;88.11
62103;BME280;48077;48.104;11.702;2023-04-02T04:42:47;94898.69;;;5.65;88.07
62103;BME280;48077;48.104;11.702;2023-04-02T04:45:29;94904.41;;;5.62;87.99
62103;BME280;48077;48.104;11.702;2023-04-02T04:48:00;94897.78;;;5.53;87.80
62103;BME280;48077;48.104;11.702;2023-04-02T04:52:52;94891.25;;;5.55;88.48
62103;BME280;48077;48.104;11.702;2023-04-02T04:55:24;94881.72;;;5.47;88.30
62103;BME280;48077;48.104;11.702;2023-04-02T04:57:48;94909.09;;;5.60;88.07
62103;BME280;48077;48.104;11.702;2023-04-02T05:00:18;94908.56;;;5.51;88.34
62103;BME280;48077;48.104;11.702;2023-04-02T05:02:54;94912.19;;;5.57;88.21
62103;BME280;48077;48.104;11.702;2023-04-02T05:05:29;94910.41;;;5.51;88.21
62103;BME280;48077;48.104;11.702;2023-04-02T05:08:21;94897.06;;;5.39;88.40
62103;BME280;48077;48.104;11.702;2023-04-02T05:10:51;94917.09;;;5.53;88.36
62103;BME280;48077;48.104;11.702;2023-04-02T05:13:27;94933.13;;;5.58;88.08
62103;BME280;48077;48.104;11.702;2023-04-02T05:18:55;94915.75;;;5.44;87.98
62103;BME280;48077;48.104;11.702;2023-04-02T05:21:26;94934.63;;;5.47;88.63
62103;BME280;48077;48.104;11.702;2023-04-02T05:26:48;94931.63;;;5.44;88.37
62103;BME280;48077;48.104;11.702;2023-04-02T05:29:21;94940.50;;;5.50;88.29
62103;BME280;48077;48.104;11.702;2023-04-02T05:31:58;94938.47;;;5.52;88.49
62103;BME280;48077;48.104;11.702;2023-04-02T05:34:26;94950.09;;;5.51;88.97
62103;BME280;48077;48.104;11.702;2023-04-02T05:36:51;94956.56;;;5.55;89.06
62103;BME280;48077;48.104;11.702;2023-04-02T05:39:21;94956.72;;;5.60;88.44
62103;BME280;48077;48.104;11.702;2023-04-02T05:41:45;94959.56;;;5.58;88.74
62103;BME280;48077;48.104;11.702;2023-04-02T05:46:48;94968.09;;;5.60;88.50
62103;BME280;48077;48.104;11.702;2023-04-02T05:49:19;94943.41;;;5.48;88.35
62103;BME280;48077;48.104;11.702;2023-04-02T05:51:48;94959.00;;;5.56;88.20
62103;BME280;48077;48.104;11.702;2023-04-02T05:54:24;94958.81;;;5.51;88.04
62103;BME280;48077;48.104;11.702;2023-04-02T05:56:54;94980.47;;;5.66;87.83
62103;BME280;48077;48.104;11.702;2023-04-02T05:59:23;94971.16;;;5.64;87.42
62103;BME280;48077;48.104;11.702;2023-04-02T06:01:54;94983.09;;;5.73;87.03
62103;BME280;48077;48.104;11.702;2023-04-02T06:04:35;94972.34;;;5.68;86.50
62103;BME280;48077;48.104;11.702;2023-04-02T06:07:10;94973.41;;;5.60;87.19
62103;BME280;48077;48.104;11.702;2023-04-02T06:09:45;94986.97;;;5.71;87.18
62103;BME280;48077;48.104;11.702;2023-04-02T06:12:21;94973.00;;;5.63;87.35
62103;BME280;48077;48.104;11.702;2023-04-02T06:14:46;94977.84;;;5.66;87.76
62103;BME280;48077;48.104;11.702;2023-04-02T06:17:15;94982.31;;;5.66;87.57
62103;BME280;48077;48.104;11.702;2023-04-02T06:19:41;94996.09;;;5.75;87.11
62103;BME280;48077;48.104;11.702;2023-04-02T06:22:34;94998.94;;;5.80;87.45
62103;BME280;48077;48.104;11.702;2023-04-02T06:25:08;94999.53;;;5.82;86.91
62103;BME280;48077;48.104;11.702;2023-04-02T06:27:36;95002.97;;;5.82;87.47
62103;BME280;48077;48.104;11.702;2023-04-02T06:30:04;95007.47;;;5.82;87.29
62103;BME280;48077;48.104;11.702;2023-04-02T06:32:30;94997.53;;;5.77;87.33
62103;BME280;48077;48.104;11.702;2023-04-02T06:34:53;95010.25;;;5.87;87.54
62103;BME280;48077;48.104;11.702;2023-04-02T06:37:32;95003.94;;;5.95;87.05
62103;BME280;48077;48.104;11.702;2023-04-02T06:39:58;95014.53;;;5.95;86.74
62103;BME280;48077;48.104;11.702;2023-04-02T06:42:36;95003.97;;;5.88;87.59
62103;BME280;48077;48.104;11.702;2023-04-02T06:45:02;94989.53;;;5.84;87.04
62103;BME280;48077;48.104;11.702;2023-04-02T06:47:33;95021.59;;;6.01;87.14
62103;BME280;48077;48.104;11.702;2023-04-02T06:50:18;95019.34;;;6.04;86.44
62103;BME280;48077;48.104;11.702;2023-04-02T06:52:51;95034.09;;;6.19;86.21
62103;BME280;48077;48.104;11.702;2023-04-02T06:57:42;95039.75;;;6.22;86.36
62103;BME280;48077;48.104;11.702;2023-04-02T07:00:08;95039.75;;;6.22;86.35
62103;BME280;48077;48.104;11.702;2023-04-02T07:02:39;95036.50;;;6.20;85.91
62103;BME280;48077;48.104;11.702;2023-04-02T07:05:07;95035.13;;;6.18;85.78
62103;BME280;48077;48.104;11.702;2023-04-02T07:07:31;95047.03;;;6.27;85.52
62103;BME280;48077;48.104;11.702;2023-04-02T07:09:54;95045.59;;;6.31;85.22
62103;BME280;48077;48.104;11.702;2023-04-02T07:12:23;95054.03;;;6.46;84.08
62103;BME280;48077;48.104;11.702;2023-04-02T07:14:47;95049.47;;;6.54;84.02
62103;BME280;48077;48.104;11.702;2023-04-02T07:17:15;95059.19;;;6.60;83.73
62103;BME280;48077;48.104;11.702;2023-04-02T07:19:39;95049.41;;;6.60;83.57
62103;BME280;48077;48.104;11.702;2023-04-02T07:22:04;95046.63;;;6.55;82.81
62103;BME280;48077;48.104;11.702;2023-04-02T07:24:27;95060.97;;;6.66;83.28
62103;BME280;48077;48.104;11.702;2023-04-02T07:26:50;95050.16;;;6.67;83.81
62103;BME280;48077;48.104;11.702;2023-04-02T07:29:15;95047.66;;;6.73;82.94
62103;BME280;48077;48.104;11.702;2023-04-02T07:31:38;95066.03;;;6.93;82.25
62103;BME280;48077;48.104;11.702;2023-04-02T07:34:04;95062.56;;;6.92;82.48
62103;BME280;48077;48.104;11.702;2023-04-02T07:36:28;95054.31;;;7.00;82.81
62103;BME280;48077;48.104;11.702;2023-04-02T07:38:52;95064.06;;;7.06;82.71
62103;BME280;48077;48.104;11.702;2023-04-02T07:41:16;95069.19;;;7.20;81.81
62103;BME280;48077;48.104;11.702;2023-04-02T07:43:44;95071.75;;;7.26;81.33
62103;BME280;48077;48.104;11.702;2023-04-02T07:46:09;95071.34;;;7.29;79.95
62103;BME280;48077;48.104;11.702;2023-04-02T07:48:33;95072.66;;;7.39;79.96
62103;BME280;48077;48.104;11.702;2023-04-02T07:50:57;95074.91;;;7.35;80.15
62103;BME280;48077;48.104;11.702;2023-04-02T07:53:32;95076.09;;;7.39;79.95
62103;BME280;48077;48.104;11.702;2023-04-02T07:55:57;95081.69;;;7.49;79.53
62103;BME280;48077;48.104;11.702;2023-04-02T07:58:24;95092.69;;;7.53;79.68
62103;BME280;48077;48.104;11.702;2023-04-02T08:00:47;95074.41;;;7.45;79.64
62103;BME280;48077;48.104;11.702;2023-04-02T08:03:12;95083.63;;;7.42;78.51
62103;BME280;48077;48.104;11.702;2023-04-02T08:05:35;95090.25;;;7.52;78.77
62103;BME280;48077;48.104;11.702;2023-04-02T08:07:59;95091.72;;;7.47;79.31
62103;BME280;48077;48.104;11.702;2023-04-02T08:10:25;95104.59;;;7.62;79.62
62103;BME280;48077;48.104;11.702;2023-04-02T08:12:48;95112.53;;;7.81;78.63
62103;BME280;48077;48.104;11.702;2023-04-02T08:15:13;95106.72;;;7.72;77.80
62103;BME280;48077;48.104;11.702;2023-04-02T08:17:36;95098.06;;;7.65;77.39
62103;BME280;48077;48.104;11.702;2023-04-02T08:20:00;95120.22;;;7.70;78.58
62103;BME280;48077;48.104;11.702;2023-04-02T08:22:23;95104.06;;;7.72;78.17
62103;BME280;48077;48.104;11.702;2023-04-02T08:24:47;95120.66;;;7.86;77.87
62103;BME280;48077;48.104;11.702;2023-04-02T08:27:14;95117.31;;;7.90;78.66
62103;BME280;48077;48.104;11.702;2023-04-02T08:29:38;95098.16;;;7.88;78.77
62103;BME280;48077;48.104;11.702;2023-04-02T08:32:01;95125.03;;;8.10;77.49
62103;BME280;48077;48.104;11.702;2023-04-02T08:34:28;95122.06;;;8.19;77.75
62103;BME280;48077;48.104;11.702;2023-04-02T08:36:55;95123.69;;;8.31;76.00
62103;BME280;48077;48.104;11.702;2023-04-02T08:39:19;95124.41;;;8.39;75.09
62103;BME280;48077;48.104;11.702;2023-04-02T08:41:52;95126.84;;;8.40;75.59
62103;BME280;48077;48.104;11.702;2023-04-02T08:47:01;95130.19;;;8.36;75.88
62103;BME280;48077;48.104;11.702;2023-04-02T08:52:26;95138.50;;;8.39;76.01
62103;BME280;48077;48.104;11.702;2023-04-02T08:54:50;95126.03;;;8.40;75.38
62103;BME280;48077;48.104;11.702;2023-04-02T08:57:30;95129.50;;;8.40;74.81
62103;BME280;48077;48.104;11.702;2023-04-02T09:00:05;95130.69;;;8.56;76.01
62103;BME280;48077;48.104;11.702;2023-04-02T09:02:41;95131.63;;;8.62;74.75
62103;BME280;48077;48.104;11.702;2023-04-02T09:05:16;95140.44;;;8.74;75.39
62103;BME280;48077;48.104;11.702;2023-04-02T09:07:40;95130.38;;;8.76;74.47
62103;BME280;48077;48.104;11.702;2023-04-02T09:10:04;95137.44;;;8.82;74.30
62103;BME280;48077;48.104;11.702;2023-04-02T09:12:29;95129.03;;;8.85;73.38
62103;BME280;48077;48.104;11.702;2023-04-02T09:17:32;95152.16;;;9.08;71.92
62103;BME280;48077;48.104;11.702;2023-04-02T09:20:15;95149.38;;;9.15;71.37
62103;BME280;48077;48.104;11.702;2023-04-02T09:22:39;95154.56;;;9.10;71.72
62103;BME280;48077;48.104;11.702;2023-04-02T09:25:04;95165.44;;;9.32;71.37
62103;BME280;48077;48.104;11.702;2023-04-02T09:27:33;95156.06;;;9.41;71.43
62103;BME280;48077;48.104;11.702;2023-04-02T09:30:12;95143.09;;;9.45;70.66
62103;BME280;48077;48.104;11.702;2023-04-02T09:32:53;95166.22;;;9.56;70.49
62103;BME280;48077;48.104;11.702;2023-04-02T09:35:22;95168.78;;;9.39;71.15
62103;BME280;48077;48.104;11.702;2023-04-02T09:40:46;95170.63;;;9.27;70.09
62103;BME280;48077;48.104;11.702;2023-04-02T09:43:19;95170.78;;;9.32;70.59
62103;BME280;48077;48.104;11.702;2023-04-02T09:46:03;95185.09;;;9.43;70.02
62103;BME280;48077;48.104;11.702;2023-04-02T09:51:44;95180.59;;;9.55;70.42
62103;BME280;48077;48.104;11.702;2023-04-02T09:56:24;95189.28;;;9.50;68.93
62103;BME280;48077;48.104;11.702;2023-04-02T09:59:14;95191.72;;;9.40;69.33
62103;BME280;48077;48.104;11.702;2023-04-02T10:04:05;95178.84;;;9.37;67.59
62103;BME280;48077;48.104;11.702;2023-04-02T10:06:30;95180.44;;;9.62;66.73
62103;BME280;48077;48.104;11.702;2023-04-02T10:08:54;95194.34;;;9.64;67.73
62103;BME280;48077;48.104;11.702;2023-04-02T10:11:27;95187.66;;;10.02;67.36
62103;BME280;48077;48.104;11.702;2023-04-02T10:14:04;95183.38;;;10.01;65.30
62103;BME280;48077;48.104;11.702;2023-04-02T10:16:47;95188.75;;;9.89;65.58
62103;BME280;48077;48.104;11.702;2023-04-02T10:21:40;95194.34;;;9.76;68.38
62103;BME280;48077;48.104;11.702;2023-04-02T10:24:12;95184.97;;;9.49;68.00
62103;BME280;48077;48.104;11.702;2023-04-02T10:31:48;95197.84;;;9.29;69.58
62103;BME280;48077;48.104;11.702;2023-04-02T10:34:26;95198.44;;;9.19;70.63
62103;BME280;48077;48.104;11.702;2023-04-02T10:36:57;95199.91;;;9.27;71.40
62103;BME280;48077;48.104;11.702;2023-04-02T10:39:35;95205.59;;;9.42;70.35
62103;BME280;48077;48.104;11.702;2023-04-02T10:42:13;95176.84;;;9.68;69.87
62103;BME280;48077;48.104;11.702;2023-04-02T10:45:18;95213.78;;;9.88;68.09
62103;BME280;48077;48.104;11.702;2023-04-02T10:47:59;95205.44;;;9.84;67.74
62103;BME280;48077;48.104;11.702;2023-04-02T10:50:36;95207.13;;;10.02;67.28
62103;BME280;48077;48.104;11.702;2023-04-02T10:53:10;95208.81;;;10.20;66.70
62103;BME280;48077;48.104;11.702;2023-04-02T10:55:40;95192.66;;;10.67;64.82
62103;BME280;48077;48.104;11.702;2023-04-02T10:58:19;95214.50;;;11.15;64.23
62103;BME280;48077;48.104;11.702;2023-04-02T11:00:46;95188.53;;;10.93;63.15
62103;BME280;48077;48.104;11.702;2023-04-02T11:03:15;95209.56;;;11.24;61.35
62103;BME280;48077;48.104;11.702;2023-04-02T11:05:52;95205.63;;;11.65;62.27
62103;BME280;48077;48.104;11.702;2023-04-02T11:08:21;95207.38;;;11.77;60.84
62103;BME280;48077;48.104;11.702;2023-04-02T11:10:52;95202.28;;;11.92;60.01
62103;BME280;48077;48.104;11.702;2023-04-02T11:13:39;95204.72;;;11.77;60.07
62103;BME280;48077;48.104;11.702;2023-04-02T11:16:05;95216.38;;;11.70;60.98
62103;BME280;48077;48.104;11.702;2023-04-02T11:18:29;95212.94;;;11.53;60.25
62103;BME280;48077;48.104;11.702;2023-04-02T11:21:05;95212.81;;;11.26;60.17
62103;BME280;48077;48.104;11.702;2023-04-02T11:23:38;95223.31;;;11.16;60.61
62103;BME280;48077;48.104;11.702;2023-04-02T11:29:03;95213.38;;;10.94;61.05
62103;BME280;48077;48.104;11.702;2023-04-02T11:31:31;95212.94;;;10.85;60.98
62103;BME280;48077;48.104;11.702;2023-04-02T11:33:55;95193.94;;;10.65;61.04
62103;BME280;48077;48.104;11.702;2023-04-02T11:39:46;95218.50;;;10.67;63.34
62103;BME280;48077;48.104;11.702;2023-04-02T11:44:42;95218.81;;;10.70;64.46
62103;BME280;48077;48.104;11.702;2023-04-02T11:47:19;95237.84;;;10.74;65.63
62103;BME280;48077;48.104;11.702;2023-04-02T11:49:58;95232.47;;;10.57;65.08
62103;BME280;48077;48.104;11.702;2023-04-02T11:52:28;95244.31;;;10.78;65.45
62103;BME280;48077;48.104;11.702;2023-04-02T11:55:03;95236.00;;;10.46;67.46
62103;BME280;48077;48.104;11.702;2023-04-02T11:57:39;95239.41;;;10.29;69.30
62103;BME280;48077;48.104;11.702;2023-04-02T12:00:30;95245.41;;;10.37;70.82
62103;BME280;48077;48.104;11.702;2023-04-02T12:09:02;95255.31;;;10.53;70.33
62103;BME280;48077;48.104;11.702;2023-04-02T12:11:33;95252.34;;;10.66;70.67
62103;BME280;48077;48.104;11.702;2023-04-02T12:13:58;95247.22;;;10.77;68.43
62103;BME280;48077;48.104;11.702;2023-04-02T12:16:23;95257.13;;;10.64;69.76
62103;BME280;48077;48.104;11.702;2023-04-02T12:18:51;95254.63;;;10.74;68.89
62103;BME280;48077;48.104;11.702;2023-04-02T12:21:18;95265.31;;;10.74;69.84
62103;BME280;48077;48.104;11.702;2023-04-02T12:23:45;95257.56;;;10.73;69.73
62103;BME280;48077;48.104;11.702;2023-04-02T12:26:29;95258.63;;;10.89;68.15
62103;BME280;48077;48.104;11.702;2023-04-02T12:28:54;95260.66;;;10.82;65.94
62103;BME280;48077;48.104;11.702;2023-04-02T12:31:20;95262.78;;;10.68;66.52
62103;BME280;48077;48.104;11.702;2023-04-02T12:33:50;95260.09;;;10.51;68.91
62103;BME280;48077;48.104;11.702;2023-04-02T12:36:21;95269.41;;;10.37;70.38
62103;BME280;48077;48.104;11.702;2023-04-02T12:38:46;95269.94;;;9.98;73.73
62103;BME280;48077;48.104;11.702;2023-04-02T12:41:27;95255.13;;;9.67;75.88
62103;BME280;48077;48.104;11.702;2023-04-02T12:46:20;95295.28;;;9.53;81.86
62103;BME280;48077;48.104;11.702;2023-04-02T12:48:45;95288.69;;;9.44;83.34
62103;BME280;48077;48.104;11.702;2023-04-02T12:51:09;95287.41;;;9.47;82.06
62103;BME280;48077;48.104;11.702;2023-04-02T12:53:38;95270.66;;;9.46;84.32
62103;BME280;48077;48.104;11.702;2023-04-02T12:56:03;95271.94;;;9.44;84.63
62103;BME280;48077;48.104;11.702;2023-04-02T12:58:36;95291.72;;;9.60;87.51
62103;BME280;48077;48.104;11.702;2023-04-02T13:01:17;95297.59;;;9.85;85.12
62103;BME280;48077;48.104;11.702;2023-04-02T13:03:40;95298.19;;;9.87;82.70
62103;BME280;48077;48.104;11.702;2023-04-02T13:06:19;95299.34;;;9.68;82.47
62103;BME280;48077;48.104;11.702;2023-04-02T13:08:43;95306.19;;;9.64;81.80
62103;BME280;48077;48.104;11.702;2023-04-02T13:11:06;95295.59;;;9.22;85.01
62103;BME280;48077;48.104;11.702;2023-04-02T13:13:38;95287.25;;;9.06;85.57
62103;BME280;48077;48.104;11.702;2023-04-02T13:18:43;95301.56;;;8.63;92.53
62103;BME280;48077;48.104;11.702;2023-04-02T13:23:36;95303.88;;;8.41;96.78
62103;BME280;48077;48.104;11.702;2023-04-02T13:26:23;95313.84;;;8.27;95.67
62103;BME280;48077;48.104;11.702;2023-04-02T13:28:58;95291.78;;;7.90;98.95
62103;BME280;48077;48.104;11.702;2023-04-02T13:31:21;95299.75;;;7.90;99.72
62103;BME280;48077;48.104;11.702;2023-04-02T13:33:45;95322.00;;;7.89;100.00
62103;BME280;48077;48.104;11.702;2023-04-02T13:36:14;95306.03;;;7.70;100.00
62103;BME280;48077;48.104;11.702;2023-04-02T13:38:40;95305.69;;;7.67;100.00
62103;BME280;48077;48.104;11.702;2023-04-02T13:41:04;95306.91;;;7.64;100.00
62103;BME280;48077;48.104;11.702;2023-04-02T13:43:27;95301.69;;;7.58;100.00
62103;BME280;48077;48.104;11.702;2023-04-02T13:45:53;95308.38;;;7.60;100.00
62103;BME280;48077;48.104;11.702;2023-04-02T13:48:17;95253.63;;;7.22;100.00
62103;BME280;48077;48.104;11.702;2023-04-02T13:50:40;95253.78;;;7.27;100.00
62103;BME280;48077;48.104;11.702;2023-04-02T13:53:06;95247.28;;;7.23;100.00
62103;BME280;48077;48.104;11.702;2023-04-02T13:55:38;95304.50;;;7.63;100.00
62103;BME280;48077;48.104;11.702;2023-04-02T13:58:04;95294.91;;;7.62;100.00
62103;BME280;48077;48.104;11.702;2023-04-02T14:00:28;95294.84;;;7.68;100.00
62103;BME280;48077;48.104;11.702;2023-04-02T14:02:56;95327.75;;;7.86;100.00
62103;BME280;48077;48.104;11.702;2023-04-02T14:08:06;95323.06;;;7.88;100.00
62103;BME280;48077;48.104;11.702;2023-04-02T14:11:06;95324.81;;;7.94;100.00
62103;BME280;48077;48.104;11.702;2023-04-02T14:13:55;95339.44;;;8.03;100.00
62103;BME280;48077;48.104;11.702;2023-04-02T14:19:14;95338.72;;;8.15;100.00
62103;BME280;48077;48.104;11.702;2023-04-02T14:24:38;95343.28;;;8.07;100.00
62103;BME280;48077;48.104;11.702;2023-04-02T14:27:33;95342.75;;;7.99;100.00
62103;BME280;48077;48.104;11.702;2023-04-02T14:30:07;95351.09;;;8.02;100.00
62103;BME280;48077;48.104;11.702;2023-04-02T14:35:40;95359.28;;;8.01;100.00
62103;BME280;48077;48.104;11.702;2023-04-02T14:40:49;95362.66;;;8.08;100.00
62103;BME280;48077;48.104;11.702;2023-04-02T14:46:01;95378.06;;;7.56;100.00
62103;BME280;48077;48.104;11.702;2023-04-02T14:48:31;95378.75;;;7.44;100.00
62103;BME280;48077;48.104;11.702;2023-04-02T14:51:04;95379.75;;;7.18;100.00
62103;BME280;48077;48.104;11.702;2023-04-02T14:53:30;95379.97;;;7.17;100.00
62103;BME280;48077;48.104;11.702;2023-04-02T14:55:59;95379.75;;;7.18;100.00
62103;BME280;48077;48.104;11.702;2023-04-02T14:58:25;95380.00;;;7.10;100.00
62103;BME280;48077;48.104;11.702;2023-04-02T15:00:55;95382.84;;;7.15;100.00
62103;BME280;48077;48.104;11.702;2023-04-02T15:03:28;95378.19;;;7.11;100.00
62103;BME280;48077;48.104;11.702;2023-04-02T15:05:57;95374.94;;;7.08;100.00
62103;BME280;48077;48.104;11.702;2023-04-02T15:08:29;95379.97;;;7.17;100.00